Time;durP1;ratioP1;P1;durP2;ratioP2;P2;SDS_P1;SDS_P2;PMS_P1;PMS_P2;Temp;Humidity;BMP_temperature;BMP_pressure;BME280_temperature;BME280_humidity;BME280_pressure;Samples;Min_cycle;Max_cycle;Signal;HPM_P1;HPM_P2
2022/05/24 00:00:22;;;;;;;7.55;7.00;;;;;;;16.09;96.60;99263.19;5058948;28;20050;-82
2022/05/24 00:02:47;;;;;;;7.25;6.85;;;;;;;16.07;96.49;99254.56;5078284;28;20024;-82
2022/05/24 00:05:13;;;;;;;7.85;7.10;;;;;;;16.06;96.69;99253.72;5078930;28;20050;-82
2022/05/24 00:07:39;;;;;;;6.90;6.50;;;;;;;16.07;96.73;99254.56;5078585;28;20026;-83
2022/05/24 00:10:06;;;;;;;8.05;7.47;;;;;;;16.07;96.32;99259.81;5078682;28;20121;-82
2022/05/24 00:12:32;;;;;;;7.18;6.78;;;;;;;16.04;96.69;99260.84;5078615;28;20393;-83
2022/05/24 00:17:42;;;;;;;6.70;6.30;;;;;;;15.99;96.36;99278.72;5074503;28;20071;-79
2022/05/24 00:20:08;;;;;;;7.07;6.53;;;;;;;15.95;96.54;99280.72;5074468;28;20020;-81
2022/05/24 00:22:33;;;;;;;7.43;6.93;;;;;;;15.91;95.81;99280.97;5074593;28;20024;-82
2022/05/24 00:25:01;;;;;;;11.93;7.70;;;;;;;15.84;95.95;99283.13;5075253;28;20024;-81
2022/05/24 00:27:29;;;;;;;7.68;6.97;;;;;;;15.81;95.94;99281.53;5075791;28;20028;-81
2022/05/24 00:29:56;;;;;;;7.75;7.25;;;;;;;15.77;96.06;99271.25;5076120;28;20107;-82
2022/05/24 00:32:21;;;;;;;8.13;7.43;;;;;;;15.72;96.12;99272.38;5095428;28;20075;-82
2022/05/24 00:34:46;;;;;;;8.25;7.53;;;;;;;15.68;96.66;99268.25;5075076;28;20025;-82
2022/05/24 00:37:12;;;;;;;8.52;7.63;;;;;;;15.66;96.61;99267.47;5058465;28;20031;-83
2022/05/24 00:39:37;;;;;;;7.75;7.25;;;;;;;15.64;96.54;99265.91;5091546;28;20028;-84
2022/05/24 00:42:10;;;;;;;8.40;7.80;;;;;;;15.63;96.86;99278.19;5073884;28;20024;-84
2022/05/24 00:44:39;;;;;;;7.80;7.30;;;;;;;15.63;96.79;99270.28;5074579;28;20024;-83
2022/05/24 00:47:32;;;;;;;8.02;7.53;;;;;;;15.62;96.99;99276.50;5070925;28;20481;-84
2022/05/24 00:50:05;;;;;;;9.02;8.05;;;;;;;15.63;97.17;99283.47;5061624;28;20021;-83
2022/05/24 00:52:42;;;;;;;8.73;8.07;;;;;;;15.62;97.57;99281.75;5078365;28;20033;-83
2022/05/24 00:55:11;;;;;;;8.43;7.93;;;;;;;15.61;97.40;99274.81;5060957;28;20024;-84
2022/05/24 00:58:05;;;;;;;8.60;8.10;;;;;;;15.60;97.42;99278.38;5060883;28;20021;-81
2022/05/24 01:00:34;;;;;;;9.13;8.52;;;;;;;15.59;97.67;99287.22;5078897;28;20036;-82
2022/05/24 01:02:59;;;;;;;9.40;8.60;;;;;;;15.57;97.70;99283.84;5080228;28;20024;-80
2022/05/24 01:05:27;;;;;;;9.77;8.88;;;;;;;15.56;97.43;99282.13;5098673;28;20388;-81
2022/05/24 01:07:53;;;;;;;9.00;8.27;;;;;;;15.57;97.68;99280.34;5080496;28;20020;-81
2022/05/24 01:10:25;;;;;;;9.75;9.15;;;;;;;15.57;98.18;99281.22;5079858;28;20038;-82
2022/05/24 01:13:13;;;;;;;10.20;9.43;;;;;;;15.55;97.86;99280.44;5080147;28;20024;-82
2022/05/24 01:15:39;;;;;;;10.98;10.27;;;;;;;15.51;97.41;99282.41;5097919;28;20485;-81
2022/05/24 01:18:05;;;;;;;11.27;10.35;;;;;;;15.50;97.24;99298.28;5096986;28;20028;-82
2022/05/24 01:20:30;;;;;;;12.65;11.52;;;;;;;15.47;96.98;99295.84;5080315;28;20390;-82
2022/05/24 01:23:04;;;;;;;12.65;11.57;;;;;;;15.52;96.96;99296.41;5079913;28;20480;-82
2022/05/24 01:25:36;;;;;;;14.07;12.87;;;;;;;15.57;96.60;99289.09;5114360;28;20020;-82
2022/05/24 01:28:06;;;;;;;13.48;12.30;;;;;;;15.55;96.63;99304.97;5098870;28;20285;-82
2022/05/24 01:30:31;;;;;;;14.23;12.95;;;;;;;15.55;96.95;99310.22;5076696;28;20086;-82
2022/05/24 01:38:28;;;;;;;13.48;12.35;;;;;;;15.53;97.24;99335.78;5097430;28;20038;-82
2022/05/24 01:40:55;;;;;;;12.25;11.40;;;;;;;15.56;96.44;99345.31;5080308;28;20119;-82
2022/05/24 01:43:22;;;;;;;9.68;9.07;;;;;;;15.53;95.71;99356.00;5081044;28;20028;-82
2022/05/24 01:46:10;;;;;;;6.88;6.47;;;;;;;15.42;94.76;99380.31;5080537;28;20028;-80
2022/05/24 01:48:46;;;;;;;6.40;6.00;;;;;;;15.33;94.71;99371.16;5080974;28;20118;-83
2022/05/24 01:51:13;;;;;;;5.15;4.85;;;;;;;15.27;95.19;99379.41;5081157;28;20027;-83
2022/05/24 01:53:42;;;;;;;5.28;4.88;;;;;;;15.19;95.09;99386.88;5080548;28;20599;-82
2022/05/24 01:56:11;;;;;;;4.80;4.50;;;;;;;15.13;95.11;99395.09;5080034;28;20106;-84
2022/05/24 01:58:38;;;;;;;5.30;5.00;;;;;;;15.11;95.05;99397.81;5080270;28;20170;-84
2022/05/24 02:01:08;;;;;;;5.32;5.03;;;;;;;15.10;95.11;99404.00;5080370;28;20024;-84
2022/05/24 02:03:33;;;;;;;6.72;6.28;;;;;;;15.10;94.92;99400.53;5080704;28;20020;-85
2022/05/24 02:05:59;;;;;;;5.72;5.32;;;;;;;15.06;95.93;99414.78;5097171;28;20020;-84
2022/05/24 02:08:25;;;;;;;5.40;4.90;;;;;;;15.07;95.98;99411.22;5097114;28;20020;-84
2022/05/24 02:10:54;;;;;;;6.03;5.55;;;;;;;15.01;95.86;99418.53;5080149;28;20077;-84
2022/05/24 02:13:24;;;;;;;6.00;5.70;;;;;;;14.93;95.81;99418.09;5080967;28;20512;-81
2022/05/24 02:15:52;;;;;;;6.40;6.10;;;;;;;14.91;95.83;99419.09;5080379;28;20558;-80
2022/05/24 02:18:19;;;;;;;6.90;6.50;;;;;;;14.87;94.83;99439.44;5081018;28;20025;-81
2022/05/24 02:20:45;;;;;;;7.28;6.88;;;;;;;14.79;94.96;99434.63;5080388;28;20027;-81
2022/05/24 02:23:13;;;;;;;7.30;6.75;;;;;;;14.74;94.75;99434.00;5080968;28;20070;-83
2022/05/24 02:25:57;;;;;;;7.40;7.00;;;;;;;14.68;95.58;99442.22;5095887;28;20027;-84
2022/05/24 02:28:26;;;;;;;8.52;7.72;;;;;;;14.62;95.99;99445.97;5079030;28;20054;-85
2022/05/24 02:30:55;;;;;;;8.82;8.20;;;;;;;14.60;96.19;99452.25;5078806;28;20031;-83
2022/05/24 02:33:20;;;;;;;10.95;9.45;;;;;;;14.60;95.58;99444.38;5141503;23;20071;-83
2022/05/24 02:35:46;;;;;;;11.00;10.00;;;;;;;14.57;94.17;99465.56;5078191;28;20024;-83
2022/05/24 02:38:12;;;;;;;11.43;10.25;;;;;;;14.50;94.44;99459.78;5075353;28;20032;-83
2022/05/24 02:43:21;;;;;;;11.57;10.45;;;;;;;14.44;94.18;99470.59;5075284;28;20039;-83
2022/05/24 02:45:46;;;;;;;12.57;10.57;;;;;;;14.40;94.38;99471.66;5055554;28;20397;-82
2022/05/24 02:48:12;;;;;;;12.52;11.32;;;;;;;14.35;93.83;99477.16;5052577;28;20044;-86
2022/05/24 02:50:37;;;;;;;13.52;12.30;;;;;;;14.32;94.10;99477.34;5053728;28;20043;-86
2022/05/24 02:53:03;;;;;;;14.10;12.02;;;;;;;14.26;93.57;99489.00;5053731;28;20028;-85
2022/05/24 02:55:28;;;;;;;14.02;12.05;;;;;;;14.25;93.97;99486.44;5053583;28;20363;-85
2022/05/24 02:57:54;;;;;;;15.65;12.75;;;;;;;14.19;94.93;99495.47;5052665;28;20078;-85
2022/05/24 03:00:21;;;;;;;13.35;11.98;;;;;;;14.16;93.95;99495.63;5061329;28;20032;-85
2022/05/24 03:02:49;;;;;;;12.95;11.65;;;;;;;14.16;94.92;99496.47;5055543;28;20474;-85
2022/05/24 03:05:15;;;;;;;14.07;11.82;;;;;;;14.15;95.54;99491.31;5058476;28;20496;-83
2022/05/24 03:10:26;;;;;;;13.02;11.93;;;;;;;14.11;94.25;99500.25;5075026;28;20034;-82
2022/05/24 03:15:39;;;;;;;12.20;11.20;;;;;;;14.08;93.88;99503.88;5073756;28;20043;-86
2022/05/24 03:18:06;;;;;;;10.65;9.90;;;;;;;14.05;94.12;99500.59;5057749;28;20031;-84
2022/05/24 03:20:32;;;;;;;11.50;10.43;;;;;;;14.01;95.24;99505.97;5057269;28;20392;-86
2022/05/24 03:22:57;;;;;;;12.07;11.15;;;;;;;14.03;94.46;99514.63;5057983;28;20024;-85
2022/05/24 03:25:23;;;;;;;12.55;11.10;;;;;;;14.02;94.92;99520.81;5057660;28;20024;-86
2022/05/24 03:27:48;;;;;;;11.88;10.77;;;;;;;14.03;93.75;99517.25;5057673;28;20025;-85
2022/05/24 03:30:15;;;;;;;11.25;10.15;;;;;;;13.98;93.31;99532.38;5057683;28;20043;-84
2022/05/24 03:32:40;;;;;;;11.50;10.48;;;;;;;13.98;93.86;99540.25;5057748;28;20095;-84
2022/05/24 03:35:07;;;;;;;10.73;9.82;;;;;;;13.95;93.83;99548.28;5058841;28;20037;-84
2022/05/24 03:37:33;;;;;;;10.27;9.27;;;;;;;13.94;94.35;99543.13;5058544;28;20028;-84
2022/05/24 03:39:58;;;;;;;9.82;8.82;;;;;;;13.97;94.05;99546.41;5058168;28;20073;-85
2022/05/24 03:42:24;;;;;;;8.95;8.18;;;;;;;13.94;94.14;99545.75;5074534;28;20379;-84
2022/05/24 03:44:49;;;;;;;9.57;8.80;;;;;;;13.94;93.86;99548.38;5074209;28;20035;-84
2022/05/24 03:47:15;;;;;;;10.25;8.75;;;;;;;13.91;93.59;99556.41;5058043;28;20485;-85
2022/05/24 03:49:40;;;;;;;10.20;9.27;;;;;;;13.96;93.22;99555.25;5057952;28;20100;-85
2022/05/24 03:52:06;;;;;;;9.60;8.60;;;;;;;13.93;92.88;99558.00;5057334;28;20020;-84
2022/05/24 03:54:31;;;;;;;10.23;9.32;;;;;;;13.97;93.58;99561.34;5057829;28;20024;-83
2022/05/24 03:59:41;;;;;;;9.63;8.73;;;;;;;13.95;93.82;99576.31;5074494;28;20032;-85
2022/05/24 04:02:06;;;;;;;10.50;9.50;;;;;;;13.93;94.35;99586.88;5053880;28;20021;-84
2022/05/24 04:04:32;;;;;;;10.13;9.20;;;;;;;13.96;93.93;99592.00;5037835;28;20025;-84
2022/05/24 04:06:57;;;;;;;10.00;9.00;;;;;;;13.94;92.94;99595.63;5037483;28;20021;-85
2022/05/24 04:09:23;;;;;;;9.52;8.75;;;;;;;13.94;92.20;99593.00;5054009;28;20116;-84
2022/05/24 04:11:48;;;;;;;8.98;8.27;;;;;;;13.96;93.04;99597.25;5037005;28;20029;-85
2022/05/24 04:14:13;;;;;;;8.93;8.02;;;;;;;13.94;93.05;99598.25;5037508;28;20543;-84
2022/05/24 04:16:39;;;;;;;7.65;7.05;;;;;;;13.93;92.13;99602.63;5054426;28;20017;-85
2022/05/24 04:19:05;;;;;;;8.75;7.75;;;;;;;13.91;92.55;99619.41;5038485;28;20029;-86
2022/05/24 04:21:30;;;;;;;8.07;7.25;;;;;;;13.90;91.34;99613.28;5037825;28;20021;-85
2022/05/24 04:23:56;;;;;;;8.75;7.85;;;;;;;13.89;91.65;99622.06;5056087;28;20029;-85
2022/05/24 04:26:21;;;;;;;7.53;6.95;;;;;;;13.87;91.23;99623.94;5039544;28;20029;-84
2022/05/24 04:28:46;;;;;;;7.55;7.05;;;;;;;13.83;91.70;99625.00;5044943;28;20029;-85
2022/05/24 04:31:12;;;;;;;7.22;6.63;;;;;;;13.81;92.64;99619.81;5055709;28;20029;-85
2022/05/24 04:33:37;;;;;;;8.07;7.38;;;;;;;13.82;94.09;99623.28;5073612;28;20550;-84
2022/05/24 04:36:03;;;;;;;7.88;7.40;;;;;;;13.83;94.17;99617.13;5058736;28;20079;-84
2022/05/24 04:38:28;;;;;;;8.18;7.57;;;;;;;13.88;93.78;99609.03;5058324;28;20513;-83
2022/05/24 04:43:37;;;;;;;7.57;6.97;;;;;;;13.91;94.46;99629.91;5078815;28;20085;-83
2022/05/24 04:46:04;;;;;;;9.13;8.23;;;;;;;13.91;92.83;99630.75;5075227;28;20028;-84
2022/05/24 04:48:29;;;;;;;8.45;7.53;;;;;;;13.89;92.48;99637.81;5074953;28;20017;-83
2022/05/24 04:50:58;;;;;;;7.25;6.65;;;;;;;13.80;90.74;99643.53;5074554;28;20032;-84
2022/05/24 04:53:25;;;;;;;6.78;6.32;;;;;;;13.72;90.65;99656.16;5075147;28;20030;-84
2022/05/24 04:55:51;;;;;;;7.10;6.50;;;;;;;13.73;91.33;99653.44;5075525;28;20397;-84
2022/05/24 04:58:17;;;;;;;5.65;5.15;;;;;;;13.72;91.60;99659.59;5075735;28;20028;-84
2022/05/24 05:00:43;;;;;;;6.10;5.60;;;;;;;13.68;89.79;99661.50;5092565;28;20028;-84
2022/05/24 05:03:10;;;;;;;6.65;5.50;;;;;;;13.72;89.94;99658.78;5091918;28;20073;-84
2022/05/24 05:05:35;;;;;;;6.03;5.13;;;;;;;13.75;91.20;99666.50;5091991;28;20028;-85
2022/05/24 05:08:01;;;;;;;6.60;5.50;;;;;;;13.73;88.59;99663.06;5092135;28;20016;-85
2022/05/24 05:10:26;;;;;;;7.53;4.82;;;;;;;13.71;88.06;99662.31;5075291;28;20031;-85
2022/05/24 05:12:51;;;;;;;5.82;5.30;;;;;;;13.66;89.61;99673.88;5092020;28;20020;-85
2022/05/24 05:15:17;;;;;;;6.25;4.85;;;;;;;13.67;88.81;99666.84;5073394;28;20024;-84
2022/05/24 05:17:43;;;;;;;5.78;4.95;;;;;;;13.62;89.20;99667.06;5091365;28;20389;-85
2022/05/24 05:20:08;;;;;;;5.35;4.95;;;;;;;13.59;89.80;99656.69;5074343;28;20396;-85
2022/05/24 05:22:34;;;;;;;5.80;4.90;;;;;;;13.58;89.53;99649.75;5074598;28;20366;-84
2022/05/24 05:25:00;;;;;;;7.28;4.95;;;;;;;13.57;88.71;99650.66;5075349;28;20035;-84
2022/05/24 05:27:25;;;;;;;4.72;4.43;;;;;;;13.58;89.20;99651.50;5075132;28;20025;-85
2022/05/24 05:32:36;;;;;;;5.28;4.72;;;;;;;13.66;90.16;99645.00;5071902;28;20040;-87
2022/05/24 05:35:02;;;;;;;4.78;4.32;;;;;;;13.72;90.00;99651.75;5079458;28;20027;-85
2022/05/24 05:37:30;;;;;;;5.65;5.15;;;;;;;13.78;88.94;99661.09;5096161;28;20051;-85
2022/05/24 05:39:55;;;;;;;5.95;5.38;;;;;;;13.82;88.41;99663.50;5080166;28;20020;-83
2022/05/24 05:42:21;;;;;;;5.78;5.38;;;;;;;13.88;89.49;99677.28;5083607;28;20457;-81
2022/05/24 05:44:49;;;;;;;8.57;5.45;;;;;;;13.96;90.32;99670.75;5083407;28;20393;-83
2022/05/24 05:47:18;;;;;;;5.95;5.32;;;;;;;14.02;89.38;99678.34;5081164;28;20024;-82
2022/05/24 05:49:45;;;;;;;6.82;5.75;;;;;;;14.08;89.32;99682.44;5081136;28;20043;-82
2022/05/24 05:52:11;;;;;;;6.25;5.53;;;;;;;14.16;89.29;99674.22;5083832;28;20059;-84
2022/05/24 05:54:36;;;;;;;6.40;5.90;;;;;;;14.23;87.76;99686.13;5081436;28;20020;-82
2022/05/24 05:57:01;;;;;;;6.47;6.07;;;;;;;14.24;86.68;99681.75;5075912;28;20029;-82
2022/05/24 05:59:27;;;;;;;6.38;5.82;;;;;;;14.25;87.00;99671.16;5076480;28;20024;-82
2022/05/24 06:01:56;;;;;;;6.53;6.13;;;;;;;14.22;85.15;99678.31;5076866;28;20024;-82
2022/05/24 06:04:22;;;;;;;7.43;5.82;;;;;;;14.25;86.48;99684.28;5076212;28;20028;-82
2022/05/24 06:06:47;;;;;;;6.00;5.45;;;;;;;14.28;87.41;99688.53;5075059;28;20020;-82
2022/05/24 06:09:13;;;;;;;6.03;5.50;;;;;;;14.34;84.42;99686.47;5074396;28;20027;-83
2022/05/24 06:11:39;;;;;;;6.47;6.05;;;;;;;14.31;85.25;99686.59;5058097;28;20640;-82
2022/05/24 06:14:04;;;;;;;7.30;6.45;;;;;;;14.29;85.70;99687.59;5058509;28;20020;-83
2022/05/24 06:16:30;;;;;;;6.47;5.88;;;;;;;14.30;85.39;99694.56;5073896;28;20052;-82
2022/05/24 06:18:55;;;;;;;6.18;5.68;;;;;;;14.34;87.46;99702.25;5078261;28;20020;-82
2022/05/24 06:21:20;;;;;;;6.38;5.78;;;;;;;14.32;84.69;99697.97;5078170;28;20491;-82
2022/05/24 06:23:46;;;;;;;6.43;6.03;;;;;;;14.35;84.67;99708.34;5078691;28;20035;-80
2022/05/24 06:26:16;;;;;;;7.18;6.57;;;;;;;14.32;85.41;99711.97;5079026;28;20450;-82
2022/05/24 06:28:41;;;;;;;5.97;5.45;;;;;;;14.31;86.08;99707.63;5079712;28;20021;-82
2022/05/24 06:31:06;;;;;;;7.65;7.05;;;;;;;14.32;85.80;99724.25;5078320;28;20034;-82
2022/05/24 06:33:32;;;;;;;7.00;6.60;;;;;;;14.33;85.28;99742.56;5078548;28;20036;-84
2022/05/24 06:35:57;;;;;;;7.65;7.20;;;;;;;14.33;84.07;99725.97;5096655;28;20024;-82
2022/05/24 06:38:23;;;;;;;8.27;7.60;;;;;;;14.35;84.02;99731.97;5097059;28;20035;-82
2022/05/24 06:40:48;;;;;;;7.88;7.35;;;;;;;14.39;83.72;99730.06;5078342;28;20024;-83
2022/05/24 06:43:16;;;;;;;8.05;7.35;;;;;;;14.41;84.65;99738.72;5079829;28;20028;-82
2022/05/24 06:45:42;;;;;;;9.05;8.25;;;;;;;14.40;83.96;99729.13;5095260;28;20020;-81
2022/05/24 06:48:09;;;;;;;9.35;8.65;;;;;;;14.41;84.20;99759.72;5096152;28;20022;-83
2022/05/24 06:50:34;;;;;;;9.10;8.50;;;;;;;14.44;83.13;99731.56;5097461;28;20035;-83
2022/05/24 06:53:00;;;;;;;8.50;7.90;;;;;;;14.47;83.26;99730.56;5079672;28;20020;-82
2022/05/24 06:55:25;;;;;;;8.65;7.95;;;;;;;14.47;85.15;99743.69;5081820;28;20091;-84
2022/05/24 06:57:51;;;;;;;8.40;7.85;;;;;;;14.46;85.50;99741.97;5080553;28;20032;-83
2022/05/24 07:03:03;;;;;;;10.60;9.57;;;;;;;14.53;83.79;99743.38;5096104;28;20031;-83
2022/05/24 07:05:29;;;;;;;9.70;9.02;;;;;;;14.60;83.32;99750.06;5101008;28;20101;-83
2022/05/24 07:07:56;;;;;;;10.57;9.77;;;;;;;14.71;82.26;99744.28;5082061;28;20385;-83
2022/05/24 07:10:22;;;;;;;10.45;9.65;;;;;;;14.71;82.66;99752.19;5081606;28;20023;-82
2022/05/24 07:13:09;;;;;;;10.55;9.57;;;;;;;14.70;82.35;99753.97;5080243;28;20027;-83
2022/05/24 07:15:36;;;;;;;10.93;9.82;;;;;;;14.72;81.98;99753.06;5080033;28;20027;-83
2022/05/24 07:18:01;;;;;;;10.63;9.82;;;;;;;14.77;82.05;99751.06;5078179;28;20484;-82
2022/05/24 07:20:27;;;;;;;10.23;9.48;;;;;;;14.84;81.19;99748.03;5078867;28;20016;-82
2022/05/24 07:22:54;;;;;;;11.13;10.10;;;;;;;14.87;81.77;99749.66;5096993;28;20024;-82
2022/05/24 07:25:20;;;;;;;9.85;9.15;;;;;;;14.93;81.03;99756.41;5081145;28;20077;-82
2022/05/24 07:27:46;;;;;;;10.65;9.45;;;;;;;14.95;81.22;99752.78;5093927;28;20020;-82
2022/05/24 07:30:11;;;;;;;10.40;9.40;;;;;;;14.97;80.59;99761.44;5076601;28;20085;-82
2022/05/24 07:32:37;;;;;;;10.73;9.73;;;;;;;15.03;80.50;99760.28;5075229;28;20516;-81
2022/05/24 07:35:04;;;;;;;10.68;9.68;;;;;;;15.06;79.97;99761.91;5075841;28;20123;-82
2022/05/24 07:37:29;;;;;;;10.00;9.05;;;;;;;15.05;80.54;99766.31;5075961;28;20016;-81
2022/05/24 07:48:10;;;;;;;15.15;11.43;;;;;;;15.31;77.64;99799.22;5092348;28;20392;-82
2022/05/24 07:50:36;;;;;;;12.27;11.10;;;;;;;15.35;77.19;99785.00;5075816;28;20028;-82
2022/05/24 07:53:02;;;;;;;11.35;10.07;;;;;;;15.34;77.59;99799.06;5075468;28;20035;-82
2022/05/24 07:55:27;;;;;;;11.27;10.10;;;;;;;15.35;76.78;99797.28;5092784;28;20102;-82
2022/05/24 07:57:52;;;;;;;11.35;10.35;;;;;;;15.34;77.50;99808.75;5092472;28;20375;-81
2022/05/24 08:00:18;;;;;;;11.88;10.55;;;;;;;15.32;77.52;99803.53;5075281;28;20024;-81
2022/05/24 08:02:44;;;;;;;11.32;10.27;;;;;;;15.33;78.66;99810.50;5075188;28;20028;-82
2022/05/24 08:05:10;;;;;;;10.80;9.80;;;;;;;15.34;77.97;99812.22;5075925;28;20028;-80
2022/05/24 08:07:36;;;;;;;11.35;10.10;;;;;;;15.35;78.06;99821.81;5075682;28;20048;-80
2022/05/24 08:10:04;;;;;;;11.38;10.32;;;;;;;15.37;77.03;99819.94;5075305;28;20498;-82
2022/05/24 08:12:29;;;;;;;11.90;10.75;;;;;;;15.38;76.73;99816.41;5075278;28;20034;-81
2022/05/24 08:14:55;;;;;;;11.20;10.15;;;;;;;15.47;75.88;99827.38;5075602;28;20110;-82
2022/05/24 08:17:20;;;;;;;9.95;9.15;;;;;;;15.49;77.97;99844.81;5074919;28;20042;-81
2022/05/24 08:19:46;;;;;;;11.68;10.70;;;;;;;15.54;76.86;99831.41;5074963;28;20043;-83
2022/05/24 08:22:11;;;;;;;11.10;9.93;;;;;;;15.52;77.29;99830.66;5075339;28;20020;-83
2022/05/24 08:24:36;;;;;;;10.52;9.52;;;;;;;15.51;77.84;99836.84;5091852;28;20023;-80
2022/05/24 08:27:02;;;;;;;11.05;9.98;;;;;;;15.51;78.53;99835.03;5075444;28;20028;-82
2022/05/24 08:29:27;;;;;;;10.90;9.48;;;;;;;15.49;76.22;99834.28;5075185;28;20020;-81
2022/05/24 08:31:53;;;;;;;10.65;9.57;;;;;;;15.57;78.57;99831.28;5075218;28;20065;-80
2022/05/24 08:34:19;;;;;;;10.63;9.65;;;;;;;15.56;77.19;99829.56;5075475;28;20047;-83
2022/05/24 08:36:44;;;;;;;14.70;10.15;;;;;;;15.62;76.39;99831.03;5075795;28;20037;-81
2022/05/24 08:39:10;;;;;;;10.57;9.68;;;;;;;15.64;77.09;99842.34;5092312;28;20020;-81
2022/05/24 08:42:04;;;;;;;10.02;9.23;;;;;;;15.68;75.28;99844.72;5075004;28;20031;-81
2022/05/24 08:50:08;;;;;;;10.10;8.75;;;;;;;15.91;75.95;99824.31;5092428;28;20050;-82
2022/05/24 08:52:37;;;;;;;9.88;9.07;;;;;;;15.95;74.38;99841.66;5075181;28;20028;-81
2022/05/24 08:55:04;;;;;;;9.38;8.57;;;;;;;15.99;73.72;99827.38;5075276;28;20032;-82
2022/05/24 08:57:43;;;;;;;8.80;8.10;;;;;;;15.99;72.42;99832.66;5075021;28;20024;-83
2022/05/24 09:00:21;;;;;;;8.77;7.97;;;;;;;15.96;71.70;99831.97;5075294;28;20118;-84
2022/05/24 09:02:47;;;;;;;8.82;8.10;;;;;;;16.00;70.47;99828.22;5074934;28;20031;-81
2022/05/24 09:05:36;;;;;;;8.32;7.63;;;;;;;16.02;71.27;99827.22;5075529;28;20435;-83
2022/05/24 09:08:17;;;;;;;9.75;8.95;;;;;;;16.05;72.43;99816.50;5068352;28;20067;-83
2022/05/24 09:11:13;;;;;;;9.52;8.63;;;;;;;16.04;71.36;99819.22;5076595;28;20016;-81
2022/05/24 09:13:58;;;;;;;8.75;8.05;;;;;;;16.09;71.59;99825.13;5076698;28;20020;-83
2022/05/24 09:16:34;;;;;;;8.73;7.93;;;;;;;16.20;72.84;99822.75;5076235;28;20035;-81
2022/05/24 09:19:21;;;;;;;8.73;7.93;;;;;;;16.24;70.55;99836.63;5076852;28;20456;-82
2022/05/24 09:21:51;;;;;;;8.95;8.25;;;;;;;16.29;70.85;99850.41;5078467;28;20020;-81
2022/05/24 09:24:47;;;;;;;9.45;8.52;;;;;;;16.32;71.32;99847.59;5076667;28;20032;-82
2022/05/24 09:27:15;;;;;;;9.63;8.68;;;;;;;16.31;70.72;99843.25;5075495;28;20402;-83
2022/05/24 09:29:59;;;;;;;9.13;8.23;;;;;;;16.25;69.69;99869.91;5075529;28;20028;-84
2022/05/24 09:32:39;;;;;;;8.65;8.05;;;;;;;16.23;69.77;99853.34;5075868;28;20120;-82
2022/05/24 09:35:10;;;;;;;9.65;8.25;;;;;;;16.24;70.48;99852.44;5059519;28;20028;-82
2022/05/24 09:37:37;;;;;;;9.55;8.65;;;;;;;16.23;69.02;99856.84;5075642;28;20070;-80
2022/05/24 09:40:19;;;;;;;8.70;7.80;;;;;;;16.29;69.23;99860.94;5069093;28;20020;-82
2022/05/24 09:42:45;;;;;;;8.25;7.60;;;;;;;16.34;69.58;99858.91;5079197;28;20081;-81
2022/05/24 09:45:27;;;;;;;9.75;8.90;;;;;;;16.43;69.04;99873.38;5079896;28;20020;-83
2022/05/24 09:47:58;;;;;;;9.23;8.35;;;;;;;16.37;67.82;99869.28;5079091;28;20032;-81
2022/05/24 09:50:37;;;;;;;9.52;8.63;;;;;;;16.27;68.58;99878.59;5079317;28;20067;-81
2022/05/24 09:53:02;;;;;;;8.75;7.95;;;;;;;16.13;70.37;99876.72;5079437;28;20050;-83
2022/05/24 09:55:51;;;;;;;9.02;8.32;;;;;;;16.05;69.87;99900.81;5096229;28;20028;-82
2022/05/24 09:58:32;;;;;;;8.40;7.70;;;;;;;15.97;70.07;99897.72;5080276;28;20024;-83
2022/05/24 10:01:01;;;;;;;8.35;7.55;;;;;;;15.93;69.18;99897.97;5080915;28;20024;-83
2022/05/24 10:03:29;;;;;;;8.77;7.95;;;;;;;15.86;69.59;99902.69;5097037;28;20129;-83
2022/05/24 10:06:08;;;;;;;8.80;7.38;;;;;;;15.80;69.25;99905.63;5079334;28;20024;-83
2022/05/24 10:08:39;;;;;;;8.68;7.22;;;;;;;15.70;69.59;99942.06;5096797;28;20496;-83
2022/05/24 10:11:08;;;;;;;7.85;7.25;;;;;;;15.64;70.21;99926.59;5097079;28;20054;-83
2022/05/24 10:13:40;;;;;;;8.30;7.60;;;;;;;15.55;71.12;99927.88;5080758;28;20362;-83
2022/05/24 10:16:13;;;;;;;9.23;8.35;;;;;;;15.46;71.83;99923.94;5081811;28;20154;-85
2022/05/24 10:18:54;;;;;;;9.63;8.60;;;;;;;15.46;71.99;99934.44;5096795;28;20115;-83
2022/05/24 10:21:32;;;;;;;10.20;9.15;;;;;;;15.38;73.56;99926.91;5097178;28;20032;-84
2022/05/24 10:23:57;;;;;;;14.90;10.43;;;;;;;15.32;74.61;99937.72;5097311;28;20028;-83
2022/05/24 10:26:52;;;;;;;14.23;10.68;;;;;;;15.30;75.86;99917.69;5096136;28;20035;-83
2022/05/24 10:29:40;;;;;;;11.55;10.48;;;;;;;15.26;76.32;99948.56;5056017;28;20040;-82
2022/05/24 10:39:09;;;;;;;12.23;11.25;;;;;;;15.04;78.25;99960.09;5086796;28;20096;-84
2022/05/24 10:42:00;;;;;;;12.20;10.88;;;;;;;14.85;79.59;99938.19;5055934;28;20028;-84
2022/05/24 10:44:44;;;;;;;12.35;11.15;;;;;;;14.78;81.14;99942.00;5022310;28;20035;-83
2022/05/24 10:47:31;;;;;;;12.25;11.10;;;;;;;14.70;82.83;99964.25;5081450;28;20040;-82
2022/05/24 10:50:05;;;;;;;12.57;11.48;;;;;;;14.56;83.08;99950.88;5097104;28;20073;-83
2022/05/24 10:52:37;;;;;;;12.60;11.48;;;;;;;14.44;84.33;99954.00;5081130;28;20511;-84
2022/05/24 10:55:39;;;;;;;13.30;12.10;;;;;;;14.36;86.38;99960.47;5098638;28;20118;-84
2022/05/24 10:58:09;;;;;;;12.02;10.82;;;;;;;14.33;87.84;99963.22;5029113;28;20506;-83
2022/05/24 11:00:43;;;;;;;13.25;12.00;;;;;;;14.34;88.64;99972.81;5081627;28;20054;-84
2022/05/24 11:03:43;;;;;;;12.18;11.27;;;;;;;14.37;89.19;99980.56;5080652;28;20059;-84
2022/05/24 11:06:31;;;;;;;11.20;10.13;;;;;;;14.37;87.82;99971.84;5096764;28;20111;-84
2022/05/24 11:09:23;;;;;;;10.45;9.43;;;;;;;14.27;87.82;99984.50;5098943;28;20024;-85
2022/05/24 11:11:59;;;;;;;9.43;8.60;;;;;;;14.15;86.11;99993.78;5093146;28;20055;-84
2022/05/24 11:14:33;;;;;;;10.00;8.90;;;;;;;14.05;86.40;99989.81;5096897;28;20020;-84
2022/05/24 11:17:00;;;;;;;9.47;8.67;;;;;;;14.01;88.57;99999.56;5096761;28;20027;-84
2022/05/24 11:19:31;;;;;;;8.63;7.93;;;;;;;14.02;88.66;99995.19;5085794;28;20386;-84
2022/05/24 11:22:10;;;;;;;8.27;7.25;;;;;;;14.03;89.18;99997.75;5077816;28;20393;-83
2022/05/24 11:24:42;;;;;;;9.00;7.60;;;;;;;14.08;89.98;99994.09;5078935;28;20028;-84
2022/05/24 11:27:11;;;;;;;6.40;5.90;;;;;;;14.07;89.17;99993.25;5096221;28;20020;-84
2022/05/24 11:29:47;;;;;;;6.13;5.63;;;;;;;14.03;87.27;99997.75;5078025;28;20016;-84
2022/05/24 11:32:19;;;;;;;7.60;6.15;;;;;;;13.99;86.09;99993.56;5077043;28;20051;-80
2022/05/24 11:34:59;;;;;;;6.53;5.93;;;;;;;13.99;86.88;100006.69;5095201;28;20020;-81
2022/05/24 11:37:29;;;;;;;6.05;5.65;;;;;;;13.98;87.40;100012.84;5094317;28;20065;-81
2022/05/24 11:39:55;;;;;;;6.43;5.93;;;;;;;14.06;87.12;100019.53;5079077;28;20052;-80
2022/05/24 11:42:45;;;;;;;6.13;5.57;;;;;;;14.15;86.04;100021.78;5091931;28;20024;-82
2022/05/24 11:45:29;;;;;;;6.63;5.20;;;;;;;14.32;84.13;100029.81;5094226;28;20023;-83
2022/05/24 11:47:57;;;;;;;6.25;5.85;;;;;;;14.39;85.29;100040.09;5094946;28;20039;-84
2022/05/24 11:50:53;;;;;;;7.35;6.45;;;;;;;14.53;84.63;100048.22;5094610;28;20126;-83
2022/05/24 11:53:21;;;;;;;;;;;;;;;14.66;82.81;100054.69;5061058;28;20492;-83
2022/05/24 11:55:55;;;;;;;8.45;7.07;;;;;;;14.73;80.57;100054.44;5095130;28;19916;-82
2022/05/24 11:58:21;;;;;;;7.80;7.10;;;;;;;14.78;81.00;100049.81;5094402;28;20374;-83
2022/05/24 12:01:15;;;;;;;8.52;7.68;;;;;;;14.88;82.58;100051.13;5094168;28;20043;-81
2022/05/24 12:10:08;;;;;;;7.78;7.15;;;;;;;15.42;78.98;100068.88;5094237;28;20045;-84
2022/05/24 12:12:46;;;;;;;8.27;6.88;;;;;;;15.64;76.65;100058.22;5085544;28;20020;-83
2022/05/24 12:15:16;;;;;;;10.68;7.38;;;;;;;15.81;77.33;100060.06;5086088;28;20054;-83
2022/05/24 12:17:43;;;;;;;7.30;5.97;;;;;;;15.91;76.41;100063.97;5076665;28;20055;-84
2022/05/24 12:20:29;;;;;;;7.30;6.57;;;;;;;16.00;74.06;100055.59;5075736;28;20028;-84
2022/05/24 12:23:04;;;;;;;6.45;5.82;;;;;;;16.03;73.22;100063.38;5085765;28;20469;-82
2022/05/24 12:25:51;;;;;;;5.55;5.03;;;;;;;16.23;73.07;100056.25;5094059;28;20055;-84
2022/05/24 12:28:18;;;;;;;6.53;5.40;;;;;;;16.36;73.17;100073.16;5092501;28;20032;-85
2022/05/24 12:30:48;;;;;;;6.35;5.85;;;;;;;16.49;72.19;100069.91;5092235;28;20024;-84
2022/05/24 12:33:20;;;;;;;5.85;5.35;;;;;;;16.59;69.94;100075.53;5075436;28;20113;-85
2022/05/24 12:35:55;;;;;;;4.78;4.38;;;;;;;16.64;68.12;100053.28;5091441;28;20078;-85